Time;durP1;ratioP1;P1;durP2;ratioP2;P2;SDS_P1;SDS_P2;PMS_P1;PMS_P2;Temp;Humidity;BMP_temperature;BMP_pressure;BME280_temperature;BME280_humidity;BME280_pressure;Samples;Min_cycle;Max_cycle;Signal;HPM_P1;HPM_P2
2021/07/12 00:00:14;;;;;;;14.17;12.87;;;;;;;;;;5091952;28;20597;-72
2021/07/12 00:02:40;;;;;;;13.80;12.50;;;;;;;;;;5092079;28;20414;-75
2021/07/12 00:05:07;;;;;;;12.73;11.70;;;;;;;;;;5091930;28;20471;-73
2021/07/12 00:07:33;;;;;;;12.97;11.87;;;;;;;;;;5091561;28;20805;-72
2021/07/12 00:09:59;;;;;;;13.20;12.20;;;;;;;;;;5091668;28;20774;-71
2021/07/12 00:12:25;;;;;;;12.90;11.80;;;;;;;;;;5091693;28;20418;-70
2021/07/12 00:14:51;;;;;;;13.10;11.90;;;;;;;;;;5091681;28;20409;-73
2021/07/12 00:17:17;;;;;;;13.63;12.43;;;;;;;;;;5091396;28;20788;-74
2021/07/12 00:19:43;;;;;;;12.10;11.17;;;;;;;;;;5091588;28;20774;-71
2021/07/12 00:22:09;;;;;;;14.03;12.80;;;;;;;;;;5091567;28;20426;-73
2021/07/12 00:24:35;;;;;;;14.27;12.97;;;;;;;;;;5091558;28;20421;-74
2021/07/12 00:27:01;;;;;;;13.90;12.80;;;;;;;;;;5089723;28;21020;-72
2021/07/12 00:29:27;;;;;;;12.73;11.63;;;;;;;;;;5078976;28;20497;-72
2021/07/12 00:31:53;;;;;;;13.80;12.40;;;;;;;;;;5074405;28;20525;-69
2021/07/12 00:34:19;;;;;;;13.77;12.67;;;;;;;;;;5074961;28;20416;-71
2021/07/12 00:36:45;;;;;;;12.60;11.40;;;;;;;;;;5074889;28;20446;-70
2021/07/12 00:39:11;;;;;;;13.93;12.73;;;;;;;;;;5074778;28;20821;-71
2021/07/12 00:41:37;;;;;;;13.60;12.50;;;;;;;;;;5074499;28;20438;-70
2021/07/12 00:44:06;;;;;;;13.00;11.90;;;;;;;;;;5093239;28;20886;-68
2021/07/12 00:46:33;;;;;;;13.43;12.23;;;;;;;;;;5094485;28;20455;-72
2021/07/12 00:48:59;;;;;;;12.93;11.83;;;;;;;;;;5074380;28;20977;-70
2021/07/12 00:51:25;;;;;;;13.00;11.80;;;;;;;;;;5073462;28;20934;-72
2021/07/12 00:53:52;;;;;;;13.50;12.40;;;;;;;;;;5074550;28;20428;-73
2021/07/12 00:56:18;;;;;;;13.40;12.20;;;;;;;;;;5074757;28;20414;-70
2021/07/12 00:58:44;;;;;;;14.17;12.90;;;;;;;;;;5093776;28;20417;-70
2021/07/12 01:01:11;;;;;;;13.50;12.27;;;;;;;;;;5094713;28;20827;-74
2021/07/12 01:03:37;;;;;;;12.20;11.13;;;;;;;;;;5094481;28;20492;-70
2021/07/12 01:06:04;;;;;;;13.80;12.60;;;;;;;;;;5094190;28;20904;-72
2021/07/12 01:08:30;;;;;;;12.93;11.90;;;;;;;;;;5094018;28;20488;-72
2021/07/12 01:11:01;;;;;;;13.90;12.60;;;;;;;;;;5094301;28;20457;-71
2021/07/12 01:13:30;;;;;;;13.30;12.20;;;;;;;;;;5094351;28;20410;-71
2021/07/12 01:16:35;;;;;;;13.07;11.93;;;;;;;;;;5094179;28;20433;-73
2021/07/12 01:19:18;;;;;;;13.47;12.37;;;;;;;;;;5071689;28;20426;-71
2021/07/12 01:22:03;;;;;;;12.00;10.93;;;;;;;;;;5055416;28;20446;-72
2021/07/12 01:24:31;;;;;;;13.87;12.70;;;;;;;;;;5087529;28;20433;-72
2021/07/12 01:27:16;;;;;;;14.43;13.03;;;;;;;;;;5093906;28;20447;-73
2021/07/12 01:30:00;;;;;;;13.20;11.90;;;;;;;;;;5078178;28;20470;-70
2021/07/12 01:32:38;;;;;;;12.90;11.87;;;;;;;;;;5074011;28;20411;-70
2021/07/12 01:35:09;;;;;;;14.63;13.33;;;;;;;;;;5073953;28;20406;-71
2021/07/12 01:37:54;;;;;;;13.13;12.03;;;;;;;;;;5073378;28;20805;-74
2021/07/12 01:40:26;;;;;;;18.53;15.37;;;;;;;;;;5073800;28;20510;-70
2021/07/12 01:43:02;;;;;;;15.10;13.77;;;;;;;;;;5073534;28;20406;-71
2021/07/12 01:45:33;;;;;;;14.00;12.70;;;;;;;;;;5073756;28;20404;-71
2021/07/12 01:48:08;;;;;;;13.33;12.13;;;;;;;;;;5072984;28;20470;-70
2021/07/12 01:50:55;;;;;;;14.17;12.83;;;;;;;;;;5078439;28;20907;-74
2021/07/12 01:53:21;;;;;;;13.20;12.00;;;;;;;;;;5093696;28;20462;-72
2021/07/12 01:56:06;;;;;;;14.13;12.87;;;;;;;;;;5089712;28;20417;-75
2021/07/12 01:58:48;;;;;;;13.07;11.97;;;;;;;;;;5073440;28;20406;-74
2021/07/12 02:01:14;;;;;;;14.50;12.50;;;;;;;;;;5086232;28;20436;-74
2021/07/12 02:03:40;;;;;;;12.83;11.60;;;;;;;;;;5093264;28;20402;-74
2021/07/12 02:06:08;;;;;;;12.73;11.63;;;;;;;;;;5093156;28;20436;-72
2021/07/12 02:08:34;;;;;;;13.73;12.60;;;;;;;;;;5092461;28;20457;-75
2021/07/12 02:11:00;;;;;;;13.57;12.37;;;;;;;;;;5092767;28;20838;-73
2021/07/12 02:13:27;;;;;;;14.53;13.17;;;;;;;;;;5092969;28;20893;-73
2021/07/12 02:15:55;;;;;;;12.67;11.57;;;;;;;;;;5093371;28;20413;-72
2021/07/12 02:18:24;;;;;;;13.17;12.07;;;;;;;;;;5092716;28;20418;-73
2021/07/12 02:20:51;;;;;;;13.23;11.97;;;;;;;;;;5093037;28;20839;-70
2021/07/12 02:23:17;;;;;;;14.07;12.70;;;;;;;;;;5093173;28;20739;-73
2021/07/12 02:25:44;;;;;;;13.10;11.90;;;;;;;;;;5093152;28;20418;-72
2021/07/12 02:28:11;;;;;;;13.40;12.30;;;;;;;;;;5089707;28;20524;-69
2021/07/12 02:30:39;;;;;;;13.23;12.07;;;;;;;;;;5072831;28;20430;-74
2021/07/12 02:33:05;;;;;;;12.73;11.73;;;;;;;;;;5072899;28;20421;-74
2021/07/12 02:35:32;;;;;;;12.73;11.63;;;;;;;;;;5072798;28;20464;-71
2021/07/12 02:37:59;;;;;;;13.90;12.70;;;;;;;;;;5072827;28;20447;-70
2021/07/12 02:40:25;;;;;;;12.60;11.60;;;;;;;;;;5075011;28;20446;-73
2021/07/12 02:42:53;;;;;;;12.97;11.77;;;;;;;;;;5093013;28;20418;-72
2021/07/12 02:45:19;;;;;;;12.77;11.67;;;;;;;;;;5093076;28;20474;-70
2021/07/12 02:47:46;;;;;;;13.17;11.97;;;;;;;;;;5082136;28;20458;-72
2021/07/12 02:50:14;;;;;;;13.23;12.13;;;;;;;;;;5075708;28;20430;-69
2021/07/12 02:52:47;;;;;;;13.63;12.33;;;;;;;;;;5093218;28;20413;-71
2021/07/12 02:55:13;;;;;;;12.50;11.40;;;;;;;;;;5085432;28;20505;-73
2021/07/12 02:57:40;;;;;;;12.23;11.23;;;;;;;;;;5072349;28;20429;-71
2021/07/12 03:00:08;;;;;;;14.30;12.77;;;;;;;;;;5072794;28;20910;-73
2021/07/12 03:02:33;;;;;;;13.30;12.00;;;;;;;;;;5073041;28;20468;-73
2021/07/12 03:05:00;;;;;;;13.57;12.37;;;;;;;;;;5072143;28;20803;-69
2021/07/12 03:07:28;;;;;;;13.60;12.10;;;;;;;;;;5072544;28;20764;-69
2021/07/12 03:09:59;;;;;;;12.90;11.80;;;;;;;;;;5072608;28;20776;-72
2021/07/12 03:12:35;;;;;;;12.90;11.77;;;;;;;;;;5072914;28;20406;-71
2021/07/12 03:15:11;;;;;;;12.30;11.20;;;;;;;;;;5072595;28;20437;-70
2021/07/12 03:17:46;;;;;;;12.70;11.53;;;;;;;;;;5072437;28;20479;-75
2021/07/12 03:20:12;;;;;;;13.93;12.07;;;;;;;;;;5072629;28;20429;-72
2021/07/12 03:22:39;;;;;;;13.00;11.80;;;;;;;;;;5075271;28;20413;-71
2021/07/12 03:25:06;;;;;;;12.17;11.17;;;;;;;;;;5076055;28;20433;-71
2021/07/12 03:27:32;;;;;;;12.93;11.63;;;;;;;;;;5075851;28;20406;-75
2021/07/12 03:30:00;;;;;;;13.17;12.07;;;;;;;;;;5076062;28;20494;-72
2021/07/12 03:32:28;;;;;;;12.60;11.40;;;;;;;;;;5075952;28;20420;-73
2021/07/12 03:34:55;;;;;;;9.37;8.50;;;;;;;;;;5075959;28;20414;-71
2021/07/12 03:37:21;;;;;;;11.27;10.20;;;;;;;;;;5075579;28;20418;-69
2021/07/12 03:39:48;;;;;;;12.90;11.80;;;;;;;;;;5074508;28;21017;-72
2021/07/12 03:42:14;;;;;;;11.60;10.60;;;;;;;;;;5093658;28;20413;-70
2021/07/12 03:44:40;;;;;;;11.50;10.50;;;;;;;;;;5096421;28;20448;-71
2021/07/12 03:47:07;;;;;;;12.67;11.50;;;;;;;;;;5090659;28;20411;-68
2021/07/12 03:49:33;;;;;;;11.67;10.73;;;;;;;;;;5076650;28;20921;-69
2021/07/12 03:51:59;;;;;;;13.00;11.90;;;;;;;;;;5075769;28;20437;-70
2021/07/12 03:54:25;;;;;;;11.93;10.93;;;;;;;;;;5075419;28;20479;-70
2021/07/12 03:56:52;;;;;;;12.77;11.77;;;;;;;;;;5080087;28;20425;-72
2021/07/12 03:59:18;;;;;;;12.07;11.10;;;;;;;;;;5095827;28;20475;-72
2021/07/12 04:01:44;;;;;;;11.87;10.87;;;;;;;;;;5095652;28;20472;-72
2021/07/12 04:04:10;;;;;;;11.53;10.50;;;;;;;;;;5095928;28;20412;-70
2021/07/12 04:06:36;;;;;;;12.00;10.90;;;;;;;;;;5095263;28;20438;-72
2021/07/12 04:09:02;;;;;;;12.77;11.67;;;;;;;;;;5095673;28;20766;-71
2021/07/12 04:11:34;;;;;;;11.83;10.73;;;;;;;;;;5095931;28;20437;-70
2021/07/12 04:14:00;;;;;;;11.60;10.70;;;;;;;;;;5095653;28;20416;-70
2021/07/12 04:16:26;;;;;;;12.17;11.10;;;;;;;;;;5095560;28;20431;-72
2021/07/12 04:18:52;;;;;;;11.60;10.63;;;;;;;;;;5095163;28;20426;-73
2021/07/12 04:21:18;;;;;;;12.67;11.47;;;;;;;;;;5095215;28;20429;-70
2021/07/12 04:23:45;;;;;;;11.60;10.60;;;;;;;;;;5095458;28;20792;-71
2021/07/12 04:26:11;;;;;;;12.00;10.90;;;;;;;;;;5095527;28;20785;-70
2021/07/12 04:28:36;;;;;;;11.80;10.80;;;;;;;;;;5088176;28;20504;-72
2021/07/12 04:31:03;;;;;;;11.60;10.50;;;;;;;;;;5075016;28;20426;-72
2021/07/12 04:33:29;;;;;;;11.83;10.87;;;;;;;;;;5074382;28;20468;-70
2021/07/12 04:35:55;;;;;;;11.50;10.60;;;;;;;;;;5074799;28;20438;-72
2021/07/12 04:38:21;;;;;;;13.03;11.83;;;;;;;;;;5074489;28;20466;-72
2021/07/12 04:40:47;;;;;;;11.80;10.80;;;;;;;;;;5078454;28;20842;-73
2021/07/12 04:43:13;;;;;;;11.50;10.50;;;;;;;;;;5094936;28;20466;-70
2021/07/12 04:45:39;;;;;;;12.13;11.13;;;;;;;;;;5094539;28;20508;-70
2021/07/12 04:48:05;;;;;;;12.30;11.17;;;;;;;;;;5079950;28;20541;-70
2021/07/12 04:50:31;;;;;;;11.13;10.33;;;;;;;;;;5074531;28;20432;-71
2021/07/12 04:52:57;;;;;;;11.90;10.90;;;;;;;;;;5074550;28;20799;-74
2021/07/12 04:55:23;;;;;;;11.80;10.70;;;;;;;;;;5074731;28;20406;-71
2021/07/12 04:57:49;;;;;;;12.40;11.30;;;;;;;;;;5086024;28;20959;-71
2021/07/12 05:00:15;;;;;;;12.33;11.23;;;;;;;;;;5094277;28;20435;-72
2021/07/12 05:02:41;;;;;;;11.07;10.07;;;;;;;;;;5094685;28;20498;-72
2021/07/12 05:05:08;;;;;;;11.83;10.83;;;;;;;;;;5094367;28;20428;-72
2021/07/12 05:07:35;;;;;;;12.10;11.10;;;;;;;;;;5094217;28;20418;-71
2021/07/12 05:10:01;;;;;;;11.27;10.37;;;;;;;;;;5094175;28;20811;-71
2021/07/12 05:12:27;;;;;;;11.50;10.50;;;;;;;;;;5079006;28;20522;-69
2021/07/12 05:14:53;;;;;;;12.13;11.13;;;;;;;;;;5074040;28;20418;-74
2021/07/12 05:17:19;;;;;;;12.00;10.90;;;;;;;;;;5074033;28;20405;-72
2021/07/12 05:19:45;;;;;;;11.63;10.57;;;;;;;;;;5073864;28;20422;-74
2021/07/12 05:22:11;;;;;;;12.53;11.43;;;;;;;;;;5074118;28;20407;-72
2021/07/12 05:24:37;;;;;;;14.03;10.83;;;;;;;;;;5074137;28;20416;-69
2021/07/12 05:27:04;;;;;;;11.80;10.70;;;;;;;;;;5073219;28;20498;-72
2021/07/12 05:29:30;;;;;;;11.90;10.90;;;;;;;;;;5074019;28;20521;-74
2021/07/12 05:31:57;;;;;;;12.57;11.37;;;;;;;;;;5073623;28;20424;-72
2021/07/12 05:34:23;;;;;;;12.60;11.50;;;;;;;;;;5073866;28;20771;-74
2021/07/12 05:36:49;;;;;;;12.20;11.10;;;;;;;;;;5073621;28;20729;-71
2021/07/12 05:39:15;;;;;;;12.43;11.13;;;;;;;;;;5073716;28;20414;-71
2021/07/12 05:41:42;;;;;;;12.50;11.50;;;;;;;;;;5073246;28;20438;-73
2021/07/12 05:44:08;;;;;;;11.90;11.00;;;;;;;;;;5073185;28;20894;-72
2021/07/12 05:46:34;;;;;;;14.93;11.20;;;;;;;;;;5072351;28;20465;-74
2021/07/12 05:49:00;;;;;;;12.90;11.60;;;;;;;;;;5073537;28;20461;-71
2021/07/12 05:51:26;;;;;;;13.63;12.17;;;;;;;;;;5073522;28;20507;-74
2021/07/12 05:53:52;;;;;;;12.70;11.60;;;;;;;;;;5073290;28;20414;-73
2021/07/12 05:56:18;;;;;;;13.03;11.70;;;;;;;;;;5073095;28;20426;-72
2021/07/12 05:58:44;;;;;;;12.37;11.40;;;;;;;;;;5092439;28;20932;-73
2021/07/12 06:01:10;;;;;;;11.50;10.60;;;;;;;;;;5092017;28;20528;-68
2021/07/12 06:03:36;;;;;;;12.70;11.47;;;;;;;;;;5074844;28;20422;-73
2021/07/12 06:06:02;;;;;;;13.40;12.30;;;;;;;;;;5071865;28;20442;-71
2021/07/12 06:08:28;;;;;;;11.97;10.90;;;;;;;;;;5073003;28;20546;-70
2021/07/12 06:10:54;;;;;;;13.53;12.23;;;;;;;;;;5073271;28;20864;-74
2021/07/12 06:13:20;;;;;;;13.27;11.93;;;;;;;;;;5073411;28;20868;-69
2021/07/12 06:15:46;;;;;;;11.90;10.80;;;;;;;;;;5073404;28;20414;-73
2021/07/12 06:18:13;;;;;;;12.80;11.70;;;;;;;;;;5072707;28;20410;-73
2021/07/12 06:20:39;;;;;;;13.50;12.10;;;;;;;;;;5072997;28;20449;-73
2021/07/12 06:23:05;;;;;;;13.23;11.93;;;;;;;;;;5079250;28;20421;-70
2021/07/12 06:25:32;;;;;;;13.10;11.97;;;;;;;;;;5093164;28;20551;-72
2021/07/12 06:27:58;;;;;;;11.03;10.23;;;;;;;;;;5091341;28;20453;-75
2021/07/12 06:30:24;;;;;;;12.40;11.40;;;;;;;;;;5063492;28;20453;-70
2021/07/12 06:32:50;;;;;;;12.53;11.53;;;;;;;;;;5069016;28;20429;-69
2021/07/12 06:35:16;;;;;;;12.50;11.50;;;;;;;;;;5063836;28;20484;-71
2021/07/12 06:37:42;;;;;;;12.47;11.47;;;;;;;;;;5068698;28;20417;-72
2021/07/12 06:40:08;;;;;;;13.00;12.00;;;;;;;;;;5068931;28;20441;-71
2021/07/12 06:42:34;;;;;;;13.20;12.10;;;;;;;;;;5070728;28;20433;-68
2021/07/12 06:45:01;;;;;;;12.33;11.33;;;;;;;;;;5067662;28;20428;-72
2021/07/12 06:47:27;;;;;;;12.70;11.70;;;;;;;;;;5075356;28;20779;-72
2021/07/12 06:49:54;;;;;;;12.80;11.77;;;;;;;;;;5075404;28;20473;-74
2021/07/12 06:52:20;;;;;;;13.53;12.30;;;;;;;;;;5068808;28;20414;-72
2021/07/12 06:54:46;;;;;;;20.07;18.37;;;;;;;;;;5062257;28;21123;-73
2021/07/12 06:57:13;;;;;;;14.37;13.27;;;;;;;;;;5078094;28;20482;-73
2021/07/12 06:59:39;;;;;;;14.10;12.90;;;;;;;;;;5093473;28;20887;-72
2021/07/12 07:02:05;;;;;;;12.13;11.03;;;;;;;;;;5093225;28;20520;-73
2021/07/12 07:04:31;;;;;;;13.13;12.03;;;;;;;;;;5093188;28;20789;-75
2021/07/12 07:06:57;;;;;;;12.50;11.50;;;;;;;;;;5092426;28;20432;-69
2021/07/12 07:09:23;;;;;;;12.50;11.30;;;;;;;;;;5088387;28;20454;-71
2021/07/12 07:11:49;;;;;;;13.07;11.90;;;;;;;;;;5069218;28;20483;-74
2021/07/12 07:14:15;;;;;;;12.77;11.70;;;;;;;;;;5072832;28;20418;-73
2021/07/12 07:16:41;;;;;;;13.10;12.00;;;;;;;;;;5072142;28;20413;-73
2021/07/12 07:19:07;;;;;;;12.00;11.10;;;;;;;;;;5072583;28;20444;-69
2021/07/12 07:21:33;;;;;;;12.17;11.20;;;;;;;;;;5072197;28;20438;-70
2021/07/12 07:23:59;;;;;;;12.53;11.53;;;;;;;;;;5072380;28;20879;-74
2021/07/12 07:26:25;;;;;;;12.70;11.70;;;;;;;;;;5072333;28;20453;-72
2021/07/12 07:28:53;;;;;;;12.77;11.57;;;;;;;;;;5071679;28;20596;-71
2021/07/12 07:31:20;;;;;;;12.27;11.23;;;;;;;;;;5059875;28;20480;-72
2021/07/12 07:33:46;;;;;;;12.20;11.30;;;;;;;;;;5072194;28;20406;-74
2021/07/12 07:36:12;;;;;;;11.30;10.50;;;;;;;;;;5072305;28;20403;-73
2021/07/12 07:38:38;;;;;;;12.30;11.40;;;;;;;;;;5071681;28;21104;-71
2021/07/12 07:41:04;;;;;;;11.43;10.43;;;;;;;;;;5072046;28;20841;-74
2021/07/12 07:43:30;;;;;;;13.00;11.80;;;;;;;;;;5072014;28;20978;-69
2021/07/12 07:45:56;;;;;;;11.33;10.53;;;;;;;;;;5072009;28;20448;-73
2021/07/12 07:48:22;;;;;;;12.23;11.13;;;;;;;;;;5071705;28;20469;-75
2021/07/12 07:50:49;;;;;;;12.40;11.50;;;;;;;;;;5071784;28;20487;-72
2021/07/12 07:53:15;;;;;;;11.73;10.77;;;;;;;;;;5071838;28;20415;-74
2021/07/12 07:55:41;;;;;;;12.10;11.10;;;;;;;;;;5072574;28;20429;-73
2021/07/12 07:58:07;;;;;;;11.27;10.37;;;;;;;;;;5086162;28;20405;-72
2021/07/12 08:00:33;;;;;;;11.13;10.33;;;;;;;;;;5085887;28;20430;-72
2021/07/12 08:02:59;;;;;;;11.03;10.23;;;;;;;;;;5086373;28;20416;-75
2021/07/12 08:05:25;;;;;;;11.77;10.57;;;;;;;;;;5066496;28;21091;-73
2021/07/12 08:07:51;;;;;;;11.03;10.07;;;;;;;;;;5068969;28;20803;-74
2021/07/12 08:10:18;;;;;;;11.03;10.27;;;;;;;;;;5071684;28;20443;-70
2021/07/12 08:12:45;;;;;;;11.97;11.10;;;;;;;;;;5071364;28;20752;-70
2021/07/12 08:15:13;;;;;;;11.67;10.77;;;;;;;;;;5070526;28;20423;-71
2021/07/12 08:17:40;;;;;;;11.43;10.53;;;;;;;;;;5081059;28;20457;-73
2021/07/12 08:20:07;;;;;;;10.67;9.87;;;;;;;;;;5091454;28;20430;-70
2021/07/12 08:22:33;;;;;;;11.57;10.70;;;;;;;;;;5089952;28;20436;-71
2021/07/12 08:25:02;;;;;;;11.80;11.00;;;;;;;;;;5090571;28;20416;-72
2021/07/12 08:27:29;;;;;;;12.00;11.00;;;;;;;;;;5091055;28;20426;-71
2021/07/12 08:29:55;;;;;;;11.30;10.50;;;;;;;;;;5073447;28;20462;-72
2021/07/12 08:32:21;;;;;;;12.03;11.13;;;;;;;;;;5071121;28;20891;-73
2021/07/12 08:34:47;;;;;;;12.57;11.60;;;;;;;;;;5070942;28;21244;-71
2021/07/12 08:37:13;;;;;;;10.73;9.93;;;;;;;;;;5070780;28;20453;-73
2021/07/12 08:39:40;;;;;;;11.07;10.37;;;;;;;;;;5071186;28;21147;-71
2021/07/12 08:42:06;;;;;;;11.70;10.60;;;;;;;;;;5070944;28;20927;-70
2021/07/12 08:44:32;;;;;;;11.97;11.07;;;;;;;;;;5080270;28;20453;-70
2021/07/12 08:46:58;;;;;;;11.57;10.77;;;;;;;;;;5090819;28;20421;-74
2021/07/12 08:49:25;;;;;;;11.63;10.63;;;;;;;;;;5090708;28;20957;-72
2021/07/12 08:51:51;;;;;;;10.70;9.80;;;;;;;;;;5085001;28;20473;-70
2021/07/12 08:54:18;;;;;;;12.57;11.33;;;;;;;;;;5090818;28;20417;-70
2021/07/12 08:56:45;;;;;;;11.13;10.43;;;;;;;;;;5069006;28;21245;-71
2021/07/12 08:59:29;;;;;;;11.23;10.43;;;;;;;;;;5070445;28;20415;-74
2021/07/12 09:02:15;;;;;;;10.60;9.70;;;;;;;;;;5070836;28;20434;-71
2021/07/12 09:04:42;;;;;;;11.17;10.40;;;;;;;;;;5070248;28;20771;-77
2021/07/12 09:07:15;;;;;;;11.03;10.23;;;;;;;;;;5070025;28;21011;-73
2021/07/12 09:09:41;;;;;;;11.30;10.50;;;;;;;;;;5070392;28;20462;-70
2021/07/12 09:12:14;;;;;;;11.07;10.17;;;;;;;;;;5070316;28;20454;-74
2021/07/12 09:14:41;;;;;;;11.00;10.20;;;;;;;;;;5087876;28;20416;-71
2021/07/12 09:17:09;;;;;;;11.43;10.60;;;;;;;;;;5090158;28;20433;-73
2021/07/12 09:19:36;;;;;;;10.33;9.57;;;;;;;;;;5090174;28;20489;-70
2021/07/12 09:22:04;;;;;;;10.90;10.10;;;;;;;;;;5090513;28;20832;-72
2021/07/12 09:24:56;;;;;;;10.80;9.80;;;;;;;;;;5073928;28;20422;-73
2021/07/12 09:27:24;;;;;;;10.73;10.03;;;;;;;;;;5083490;28;20432;-74
2021/07/12 09:29:51;;;;;;;9.73;9.13;;;;;;;;;;5063130;28;20474;-71
2021/07/12 09:32:19;;;;;;;9.90;9.30;;;;;;;;;;5069270;28;20418;-72
2021/07/12 09:34:46;;;;;;;9.90;9.30;;;;;;;;;;5077288;28;20430;-70
2021/07/12 09:37:13;;;;;;;10.30;9.60;;;;;;;;;;5081987;28;20414;-70
2021/07/12 09:39:40;;;;;;;9.97;9.27;;;;;;;;;;5069752;28;20476;-72
2021/07/12 09:42:07;;;;;;;10.10;9.40;;;;;;;;;;5070440;28;20751;-69
2021/07/12 09:44:34;;;;;;;9.57;8.77;;;;;;;;;;5080011;28;20910;-71
2021/07/12 09:47:05;;;;;;;9.40;8.80;;;;;;;;;;5081383;28;20428;-69
2021/07/12 09:49:31;;;;;;;10.60;9.80;;;;;;;;;;5079216;28;20462;-73
2021/07/12 09:51:59;;;;;;;9.93;9.23;;;;;;;;;;5069488;28;20433;-70
2021/07/12 09:54:25;;;;;;;8.70;8.20;;;;;;;;;;5080013;28;20421;-73
2021/07/12 09:56:52;;;;;;;8.60;8.10;;;;;;;;;;5069201;28;20415;-72
2021/07/12 09:59:19;;;;;;;9.27;8.67;;;;;;;;;;5069353;28;20424;-72
2021/07/12 10:01:46;;;;;;;9.43;8.80;;;;;;;;;;5069365;28;20434;-71
2021/07/12 10:04:12;;;;;;;9.60;8.90;;;;;;;;;;5069378;28;20475;-73
2021/07/12 10:06:38;;;;;;;9.43;8.73;;;;;;;;;;5068914;28;20441;-70
2021/07/12 10:09:04;;;;;;;10.70;9.60;;;;;;;;;;5069469;28;20490;-72
2021/07/12 10:11:31;;;;;;;9.30;8.50;;;;;;;;;;5075373;28;20442;-72
2021/07/12 10:13:58;;;;;;;8.50;8.00;;;;;;;;;;5089858;28;20421;-73
2021/07/12 10:16:24;;;;;;;8.97;8.43;;;;;;;;;;5085279;28;20422;-72
2021/07/12 10:18:51;;;;;;;9.53;8.93;;;;;;;;;;5082363;28;20427;-73
2021/07/12 10:21:17;;;;;;;10.03;9.43;;;;;;;;;;5089875;28;20461;-71
2021/07/12 10:23:43;;;;;;;9.97;9.37;;;;;;;;;;5089595;28;20838;-72
2021/07/12 10:26:09;;;;;;;9.23;8.63;;;;;;;;;;5076714;28;20825;-70
2021/07/12 10:28:39;;;;;;;8.23;7.73;;;;;;;;;;5082272;28;20447;-68
2021/07/12 10:31:19;;;;;;;9.20;8.60;;;;;;;;;;5055081;28;20426;-73
2021/07/12 10:33:45;;;;;;;8.80;8.20;;;;;;;;;;5078542;28;21131;-70
2021/07/12 10:36:11;;;;;;;8.43;7.80;;;;;;;;;;5076640;28;20894;-70
2021/07/12 10:38:37;;;;;;;10.07;9.40;;;;;;;;;;5068710;28;20417;-71
2021/07/12 10:41:15;;;;;;;8.60;8.10;;;;;;;;;;5069054;28;20893;-74
2021/07/12 10:43:53;;;;;;;7.97;7.30;;;;;;;;;;5068979;28;20771;-72
2021/07/12 10:46:30;;;;;;;8.60;8.10;;;;;;;;;;5069140;28;20417;-70
2021/07/12 10:48:57;;;;;;;8.07;7.57;;;;;;;;;;5068669;28;20518;-68
2021/07/12 10:51:28;;;;;;;8.10;7.70;;;;;;;;;;5068609;28;20463;-70
2021/07/12 10:54:01;;;;;;;8.13;7.73;;;;;;;;;;5069072;28;20994;-69
2021/07/12 10:56:41;;;;;;;8.20;7.70;;;;;;;;;;5068613;28;20911;-69
2021/07/12 10:59:08;;;;;;;8.03;7.43;;;;;;;;;;5067551;28;20919;-70
2021/07/12 11:01:37;;;;;;;8.23;7.73;;;;;;;;;;5068657;28;20975;-72
2021/07/12 11:04:23;;;;;;;8.30;7.80;;;;;;;;;;5067634;28;20927;-70
2021/07/12 11:06:53;;;;;;;7.90;7.50;;;;;;;;;;5068270;28;20949;-72
2021/07/12 11:09:39;;;;;;;9.47;8.97;;;;;;;;;;5082755;28;20548;-72
2021/07/12 11:12:34;;;;;;;9.53;8.93;;;;;;;;;;5070278;28;20466;-71
2021/07/12 11:15:14;;;;;;;8.47;7.97;;;;;;;;;;5046211;28;20502;-70
2021/07/12 11:17:49;;;;;;;8.90;8.30;;;;;;;;;;5068385;28;20428;-74
2021/07/12 11:20:15;;;;;;;8.20;7.80;;;;;;;;;;5068632;28;20465;-70
2021/07/12 11:22:51;;;;;;;8.47;7.97;;;;;;;;;;5068719;28;20843;-71
2021/07/12 11:25:18;;;;;;;8.93;8.20;;;;;;;;;;5066177;28;20830;-72
2021/07/12 11:27:46;;;;;;;8.60;8.10;;;;;;;;;;5061980;28;20509;-70
2021/07/12 11:30:31;;;;;;;8.30;7.80;;;;;;;;;;5068456;28;20505;-71
2021/07/12 11:32:57;;;;;;;6.57;6.20;;;;;;;;;;5068394;28;20829;-72
2021/07/12 11:35:24;;;;;;;7.07;6.57;;;;;;;;;;5068686;28;20421;-75
2021/07/12 11:37:57;;;;;;;7.70;7.30;;;;;;;;;;5071543;28;20425;-73
2021/07/12 11:40:23;;;;;;;8.43;8.03;;;;;;;;;;5088678;28;20498;-73
2021/07/12 11:42:52;;;;;;;7.63;7.17;;;;;;;;;;5076924;28;20882;-72
2021/07/12 11:45:19;;;;;;;7.77;7.37;;;;;;;;;;5092170;28;20441;-73
2021/07/12 11:47:53;;;;;;;9.00;8.30;;;;;;;;;;5085018;28;20507;-72
2021/07/12 11:50:20;;;;;;;7.93;7.43;;;;;;;;;;5071901;28;20963;-73
2021/07/12 11:52:50;;;;;;;6.83;6.27;;;;;;;;;;5071770;28;20445;-73
2021/07/12 11:55:38;;;;;;;7.30;6.90;;;;;;;;;;5071882;28;20469;-71
2021/07/12 11:58:04;;;;;;;6.60;6.20;;;;;;;;;;5076049;28;20494;-74
2021/07/12 12:00:31;;;;;;;6.60;6.30;;;;;;;;;;5088629;28;20441;-75
2021/07/12 12:03:05;;;;;;;6.70;6.30;;;;;;;;;;5092011;28;20417;-72
2021/07/12 12:05:32;;;;;;;6.30;6.00;;;;;;;;;;5091734;28;20433;-72
2021/07/12 12:07:58;;;;;;;6.63;6.13;;;;;;;;;;5091375;28;20420;-71
2021/07/12 12:10:26;;;;;;;7.70;7.30;;;;;;;;;;5082501;28;20443;-71
2021/07/12 12:12:53;;;;;;;7.20;6.73;;;;;;;;;;5074336;28;20525;-73
2021/07/12 12:15:23;;;;;;;7.57;7.17;;;;;;;;;;5087533;28;20415;-74
2021/07/12 12:18:10;;;;;;;7.63;7.23;;;;;;;;;;5071098;28;20932;-74
2021/07/12 12:20:41;;;;;;;7.10;6.70;;;;;;;;;;5071244;28;20929;-73
2021/07/12 12:23:27;;;;;;;7.87;7.30;;;;;;;;;;5071418;28;20457;-73
2021/07/12 12:26:02;;;;;;;7.63;7.20;;;;;;;;;;5076997;28;20508;-74
2021/07/12 12:28:28;;;;;;;7.53;7.13;;;;;;;;;;5085302;28;20466;-73
2021/07/12 12:30:55;;;;;;;7.77;7.23;;;;;;;;;;5071210;28;20442;-72
2021/07/12 12:33:28;;;;;;;7.87;7.33;;;;;;;;;;5071414;28;20445;-71
2021/07/12 12:35:56;;;;;;;8.23;7.53;;;;;;;;;;5071044;28;20844;-73
2021/07/12 12:38:22;;;;;;;8.00;7.50;;;;;;;;;;5070975;28;20424;-75
2021/07/12 12:40:55;;;;;;;7.70;7.10;;;;;;;;;;5071706;28;20488;-74
2021/07/12 12:43:22;;;;;;;8.00;7.50;;;;;;;;;;5091256;28;20445;-73
2021/07/12 12:45:53;;;;;;;7.87;7.37;;;;;;;;;;5091295;28;20460;-74
2021/07/12 12:48:31;;;;;;;8.20;7.60;;;;;;;;;;5084809;28;20986;-74
2021/07/12 12:50:57;;;;;;;7.80;7.40;;;;;;;;;;5070527;28;20476;-74
2021/07/12 12:53:30;;;;;;;8.57;8.07;;;;;;;;;;5070953;28;20793;-73
2021/07/12 12:55:56;;;;;;;8.37;7.87;;;;;;;;;;5075291;28;20414;-74
2021/07/12 12:58:25;;;;;;;8.70;8.20;;;;;;;;;;5072303;28;20418;-73
2021/07/12 13:00:51;;;;;;;8.60;8.10;;;;;;;;;;5070467;28;20449;-74
2021/07/12 13:03:18;;;;;;;10.77;10.07;;;;;;;;;;5070486;28;20419;-73
2021/07/12 13:05:59;;;;;;;8.73;8.23;;;;;;;;;;5070434;28;20438;-73
2021/07/12 13:08:25;;;;;;;9.20;8.40;;;;;;;;;;5070141;28;20446;-75
2021/07/12 13:10:56;;;;;;;8.70;8.00;;;;;;;;;;5070326;28;20438;-76
2021/07/12 13:13:26;;;;;;;9.60;9.10;;;;;;;;;;5070173;28;20414;-72
2021/07/12 13:15:52;;;;;;;9.10;8.40;;;;;;;;;;5079367;28;20445;-74
2021/07/12 13:18:18;;;;;;;8.73;8.20;;;;;;;;;;5089923;28;20417;-73
2021/07/12 13:20:45;;;;;;;9.53;8.93;;;;;;;;;;5087043;28;20445;-76
2021/07/12 13:23:12;;;;;;;9.83;9.13;;;;;;;;;;5070010;28;20427;-75
2021/07/12 13:25:39;;;;;;;9.00;8.43;;;;;;;;;;5074417;28;20422;-72
2021/07/12 13:28:05;;;;;;;9.37;8.77;;;;;;;;;;5087276;28;20475;-74
2021/07/12 13:30:33;;;;;;;9.90;9.20;;;;;;;;;;5079322;28;20441;-75
2021/07/12 13:32:59;;;;;;;9.10;8.60;;;;;;;;;;5088824;28;20425;-76
2021/07/12 13:35:26;;;;;;;9.37;8.83;;;;;;;;;;5090497;28;20452;-74
2021/07/12 13:37:53;;;;;;;9.10;8.60;;;;;;;;;;5089755;28;20410;-74
2021/07/12 13:40:19;;;;;;;9.07;8.37;;;;;;;;;;5086145;28;20439;-73
2021/07/12 13:42:45;;;;;;;9.77;9.17;;;;;;;;;;5086863;28;20424;-71
2021/07/12 13:45:11;;;;;;;10.57;9.77;;;;;;;;;;5089947;28;20417;-74
2021/07/12 13:47:38;;;;;;;11.70;10.70;;;;;;;;;;5089749;28;20500;-77
2021/07/12 13:50:05;;;;;;;11.40;10.60;;;;;;;;;;5090077;28;20523;-76
2021/07/12 13:52:32;;;;;;;10.20;9.53;;;;;;;;;;5090367;28;20545;-75
2021/07/12 13:54:57;;;;;;;10.27;9.37;;;;;;;;;;5085187;28;20478;-74
2021/07/12 13:57:24;;;;;;;10.67;9.77;;;;;;;;;;5077002;28;21281;-73
2021/07/12 13:59:50;;;;;;;10.93;10.13;;;;;;;;;;5069806;28;20422;-74
2021/07/12 14:02:17;;;;;;;9.60;8.90;;;;;;;;;;5069451;28;20752;-76
2021/07/12 14:04:44;;;;;;;10.80;10.10;;;;;;;;;;5069657;28;20443;-71
2021/07/12 14:07:10;;;;;;;10.33;9.63;;;;;;;;;;5068565;28;20434;-76
2021/07/12 14:09:37;;;;;;;9.53;8.93;;;;;;;;;;5069520;28;20469;-77
2021/07/12 14:12:04;;;;;;;14.10;12.70;;;;;;;;;;5069305;28;20529;-75
2021/07/12 14:14:30;;;;;;;11.13;10.23;;;;;;;;;;5069389;28;20438;-78
2021/07/12 14:16:56;;;;;;;17.83;16.07;;;;;;;;;;5067458;28;20859;-75
2021/07/12 14:19:22;;;;;;;10.20;9.40;;;;;;;;;;5069464;28;20423;-76
2021/07/12 14:21:48;;;;;;;11.57;10.37;;;;;;;;;;5069414;28;20442;-78
2021/07/12 14:24:14;;;;;;;10.20;9.50;;;;;;;;;;5065759;28;20428;-73
2021/07/12 14:26:40;;;;;;;10.60;9.90;;;;;;;;;;5085539;28;20417;-77
2021/07/12 14:29:08;;;;;;;10.97;10.27;;;;;;;;;;5078351;28;20473;-77
2021/07/12 14:31:34;;;;;;;10.63;9.83;;;;;;;;;;5069068;28;20426;-73